Time;durP1;ratioP1;P1;durP2;ratioP2;P2;SDS_P1;SDS_P2;PMS_P1;PMS_P2;Temp;Humidity;BMP_temperature;BMP_pressure;BME280_temperature;BME280_humidity;BME280_pressure;Samples;Min_cycle;Max_cycle;Signal;HPM_P1;HPM_P2
2023/04/17 00:01:02;;;;;;;52.72;22.55;;;6.00;99.90;;;4.45;100.00;102065.53;4936003;28;20049;-78
2023/04/17 00:03:30;;;;;;;52.35;24.55;;;6.00;99.90;;;4.42;100.00;102056.84;4958475;28;20606;-79
2023/04/17 00:05:58;;;;;;;56.92;24.58;;;6.10;99.90;;;4.47;100.00;102058.59;4955646;28;20077;-77
2023/04/17 00:08:25;;;;;;;52.33;21.73;;;6.10;99.90;;;4.48;100.00;102065.53;4950981;28;20484;-79
2023/04/17 00:10:51;;;;;;;51.97;22.23;;;6.10;99.90;;;4.50;100.00;102058.56;4992170;28;20473;-79
2023/04/17 00:13:16;;;;;;;48.08;24.42;;;6.10;99.90;;;4.60;100.00;102063.78;4969103;28;20053;-77
2023/04/17 00:15:43;;;;;;;51.70;24.55;;;6.10;99.90;;;4.63;100.00;102067.28;4959797;28;20562;-79
2023/04/17 00:18:10;;;;;;;49.58;24.60;;;6.10;99.90;;;4.64;100.00;102065.53;4980849;28;20034;-79
2023/04/17 00:20:39;;;;;;;60.55;24.23;;;6.20;99.90;;;4.64;100.00;102070.75;4926471;28;20088;-78
2023/04/17 00:23:06;;;;;;;50.65;25.55;;;6.20;99.90;;;4.70;100.00;102061.16;4939319;28;20165;-78
2023/04/17 00:25:31;;;;;;;58.15;24.70;;;6.20;99.90;;;4.72;100.00;102064.66;4976080;28;20053;-79
2023/04/17 00:27:57;;;;;;;52.60;25.58;;;6.30;99.90;;;4.73;100.00;102061.19;4956465;28;20101;-77
2023/04/17 00:30:23;;;;;;;56.65;23.45;;;6.20;99.90;;;4.75;100.00;102065.50;4970831;28;20520;-79
2023/04/17 00:32:58;;;;;;;55.50;24.83;;;6.20;99.90;;;4.77;100.00;102066.38;4965942;28;20124;-79
2023/04/17 00:35:24;;;;;;;54.60;25.58;;;6.30;99.90;;;4.83;100.00;102055.94;4964104;28;20037;-78
2023/04/17 00:37:49;;;;;;;56.70;24.83;;;6.30;99.90;;;4.85;100.00;102064.63;4986425;28;20045;-78
2023/04/17 00:40:15;;;;;;;60.20;26.30;;;6.30;99.90;;;4.83;100.00;102063.78;4963183;28;20125;-78
2023/04/17 00:42:46;;;;;;;59.95;27.08;;;6.40;99.90;;;4.82;100.00;102065.53;4960510;28;20658;-79
2023/04/17 00:45:12;;;;;;;56.67;27.58;;;6.40;99.90;;;4.87;100.00;102071.59;4968060;28;20029;-78
2023/04/17 00:47:38;;;;;;;59.08;26.83;;;6.40;99.90;;;4.94;100.00;102062.88;4960364;28;20068;-79
2023/04/17 00:50:06;;;;;;;65.60;27.65;;;6.40;99.90;;;4.92;100.00;102063.75;4967119;28;20173;-78
2023/04/17 00:52:32;;;;;;;67.32;29.17;;;6.40;99.90;;;4.94;100.00;102062.88;4939507;28;20055;-77
2023/04/17 00:55:03;;;;;;;60.05;27.73;;;6.40;99.90;;;4.97;100.00;102058.50;4965115;28;20547;-79
2023/04/17 00:57:29;;;;;;;61.85;27.20;;;6.50;99.90;;;5.00;100.00;102063.75;4932475;28;20030;-77
2023/04/17 00:59:57;;;;;;;70.85;29.95;;;6.50;99.90;;;4.99;100.00;102056.78;4984590;28;20138;-79
2023/04/17 01:02:23;;;;;;;58.88;27.73;;;6.50;99.90;;;5.01;100.00;102053.31;4974044;28;20717;-77
2023/04/17 01:04:54;;;;;;;67.45;28.52;;;6.50;99.90;;;5.00;100.00;102062.00;5012186;28;20042;-79
2023/04/17 01:07:20;;;;;;;61.10;29.55;;;6.50;99.90;;;5.00;100.00;102055.91;4960593;28;20750;-79
2023/04/17 01:09:46;;;;;;;72.18;30.10;;;6.50;99.90;;;5.01;100.00;102058.53;4961618;28;20040;-79
2023/04/17 01:12:24;;;;;;;64.38;29.85;;;6.40;99.90;;;5.00;100.00;102061.13;4966180;28;20038;-79
2023/04/17 01:14:54;;;;;;;69.75;29.83;;;6.50;99.90;;;5.01;100.00;102065.47;4979238;28;20042;-79
2023/04/17 01:17:23;;;;;;;65.95;29.90;;;6.40;99.90;;;4.96;100.00;102067.22;4961135;28;20121;-79
2023/04/17 01:19:52;;;;;;;71.40;32.28;;;6.40;99.90;;;4.98;100.00;102060.28;4979415;28;20038;-78
2023/04/17 01:22:19;;;;;;;74.60;31.70;;;6.40;99.90;;;5.00;100.00;102061.13;4954997;28;21752;-79
2023/04/17 01:24:46;;;;;;;77.07;31.15;;;6.40;99.90;;;4.98;100.00;102057.66;4966788;28;20095;-78
2023/04/17 01:27:21;;;;;;;75.70;32.50;;;6.40;99.90;;;4.90;100.00;102053.34;4981869;28;20029;-77
2023/04/17 01:29:47;;;;;;;70.32;31.83;;;6.40;99.90;;;4.88;100.00;102062.00;4967216;28;20040;-79
2023/04/17 01:32:12;;;;;;;80.68;31.33;;;6.40;99.90;;;4.87;100.00;102062.91;4951162;28;20498;-79
2023/04/17 01:34:38;;;;;;;86.70;33.08;;;6.40;99.90;;;4.89;100.00;102066.38;4973143;28;20038;-79
2023/04/17 01:37:11;;;;;;;76.72;33.03;;;6.40;99.90;;;4.92;100.00;102074.19;4981511;28;20122;-78
2023/04/17 01:39:37;;;;;;;79.97;34.65;;;6.40;99.90;;;4.96;100.00;102075.94;4930210;28;20491;-79
2023/04/17 01:42:03;;;;;;;87.47;34.72;;;6.40;99.90;;;4.95;100.00;102074.19;4967676;28;20202;-79
2023/04/17 01:44:29;;;;;;;76.65;35.42;;;6.40;99.90;;;4.94;100.00;102077.66;4975900;28;20029;-79
2023/04/17 01:46:55;;;;;;;86.75;35.70;;;6.30;99.90;;;4.88;100.00;102075.06;4981747;28;20108;-78
2023/04/17 01:49:26;;;;;;;84.75;34.40;;;6.30;99.90;;;4.84;100.00;102073.34;4926346;28;20037;-79
2023/04/17 01:51:52;;;;;;;79.53;34.30;;;6.30;99.90;;;4.79;100.00;102067.25;4960587;28;20041;-79
2023/04/17 01:54:17;;;;;;;75.03;33.17;;;6.30;99.90;;;4.81;100.00;102073.34;4983912;28;20116;-79
2023/04/17 01:56:43;;;;;;;79.10;33.80;;;6.30;99.90;;;4.82;100.00;102070.75;4980502;28;20034;-79
2023/04/17 01:59:09;;;;;;;83.50;33.47;;;6.30;99.90;;;4.83;100.00;102067.25;4996881;28;20053;-79
2023/04/17 02:01:35;;;;;;;75.05;35.03;;;6.40;99.90;;;4.88;100.00;102069.84;4944739;28;20084;-79
2023/04/17 02:04:10;;;;;;;74.35;35.17;;;6.40;99.90;;;4.87;100.00;102074.19;4934934;28;20525;-79
2023/04/17 02:06:36;;;;;;;75.20;32.50;;;6.40;99.90;;;4.85;100.00;102080.31;4971907;28;20666;-78
2023/04/17 02:09:03;;;;;;;67.75;30.83;;;6.30;99.90;;;4.79;100.00;102072.47;4956616;28;20049;-79
2023/04/17 02:11:34;;;;;;;77.03;34.63;;;6.40;99.90;;;4.92;100.00;102077.69;4960572;28;20036;-77
2023/04/17 02:14:00;;;;;;;75.47;33.53;;;6.40;99.90;;;4.97;100.00;102080.28;4948519;28;20117;-79
2023/04/17 02:16:27;;;;;;;77.85;34.88;;;6.40;99.90;;;5.00;100.00;102075.06;4958639;28;20169;-78
2023/04/17 02:18:53;;;;;;;85.00;33.95;;;6.40;99.90;;;4.94;100.00;102077.66;4958788;28;20021;-78
2023/04/17 02:21:20;;;;;;;70.65;34.10;;;6.40;99.90;;;4.91;100.00;102081.16;4945191;28;20041;-79
2023/04/17 02:23:54;;;;;;;77.13;33.63;;;6.40;99.90;;;4.94;100.00;102080.28;4960414;28;20061;-79
2023/04/17 02:26:20;;;;;;;71.63;32.85;;;6.40;99.90;;;4.85;100.00;102081.16;4964255;28;20053;-79
2023/04/17 02:28:46;;;;;;;64.30;33.05;;;6.40;99.90;;;4.84;100.00;102075.97;4978980;28;20080;-78
2023/04/17 02:31:12;;;;;;;66.40;31.85;;;6.40;99.90;;;4.88;100.00;102077.66;4961118;28;20120;-79
2023/04/17 02:33:43;;;;;;;72.55;32.75;;;6.40;99.90;;;4.88;100.00;102085.50;4932419;28;20059;-78
2023/04/17 02:36:09;;;;;;;67.22;30.67;;;6.30;99.90;;;4.76;100.00;102081.19;4963262;28;20060;-77
2023/04/17 02:38:36;;;;;;;73.03;33.47;;;6.30;99.90;;;4.79;100.00;102093.34;4931366;28;20105;-78
2023/04/17 02:41:04;;;;;;;74.80;34.65;;;6.30;99.90;;;4.83;100.00;102089.88;4974690;28;20034;-79
2023/04/17 02:43:37;;;;;;;67.90;33.60;;;6.30;99.90;;;4.81;100.00;102094.22;4990205;28;20065;-78
2023/04/17 02:46:03;;;;;;;65.95;33.35;;;6.30;99.90;;;4.72;100.00;102092.50;4956810;28;20034;-79
2023/04/17 02:48:29;;;;;;;72.88;33.67;;;6.30;99.90;;;4.73;100.00;102092.50;4949673;28;20405;-79
2023/04/17 02:50:54;;;;;;;55.88;27.85;;;6.20;99.90;;;4.65;100.00;102090.75;4958293;28;20108;-77
2023/04/17 02:53:25;;;;;;;78.45;33.13;;;6.30;99.90;;;4.75;100.00;102089.88;4933351;28;20042;-78
2023/04/17 02:55:51;;;;;;;63.42;30.75;;;6.30;99.90;;;4.77;100.00;102097.69;4948912;28;20046;-79
2023/04/17 02:58:17;;;;;;;69.25;31.38;;;6.20;99.90;;;4.70;100.00;102099.44;4971669;28;20596;-79
2023/04/17 03:00:43;;;;;;;66.82;31.70;;;6.20;99.90;;;4.64;100.00;102095.09;4946305;28;20153;-79
2023/04/17 03:03:08;;;;;;;63.60;30.75;;;6.20;99.90;;;4.67;100.00;102095.09;4954365;28;20515;-79
2023/04/17 03:05:35;;;;;;;67.63;30.55;;;6.10;99.90;;;4.61;100.00;102095.09;4930048;28;20117;-78
2023/04/17 03:08:03;;;;;;;58.97;28.27;;;6.20;99.90;;;4.60;100.00;102101.19;4935918;28;20708;-79
2023/04/17 03:10:32;;;;;;;60.67;28.55;;;6.10;99.90;;;4.56;100.00;102091.63;4953305;28;20053;-79
2023/04/17 03:12:58;;;;;;;56.65;29.63;;;6.10;99.90;;;4.56;100.00;102096.84;4966933;28;20035;-77
2023/04/17 03:15:24;;;;;;;52.75;29.98;;;6.10;99.90;;;4.55;100.00;102092.47;4983428;28;20038;-78
2023/04/17 03:17:49;;;;;;;54.08;29.42;;;6.10;99.90;;;4.57;100.00;102097.72;4951758;28;20097;-79
2023/04/17 03:20:16;;;;;;;56.50;28.52;;;6.10;99.90;;;4.59;100.00;102101.19;4967796;28;20041;-78
2023/04/17 03:22:47;;;;;;;58.42;28.42;;;6.10;99.90;;;4.56;100.00;102095.94;4953227;28;20759;-79
2023/04/17 03:25:13;;;;;;;49.90;26.45;;;6.10;99.90;;;4.52;100.00;102098.56;4968217;28;20041;-78
2023/04/17 03:27:39;;;;;;;49.13;26.55;;;6.10;99.90;;;4.56;100.00;102102.06;4959811;28;20040;-79
2023/04/17 03:30:07;;;;;;;54.90;27.30;;;6.10;99.90;;;4.60;100.00;102098.59;4959655;28;20517;-78
2023/04/17 03:32:42;;;;;;;52.35;27.70;;;6.10;99.90;;;4.57;100.00;102103.78;4958591;28;20137;-79
2023/04/17 03:35:08;;;;;;;45.70;24.30;;;6.10;99.90;;;4.52;100.00;102095.09;4921709;28;20113;-77
2023/04/17 03:37:34;;;;;;;49.42;27.17;;;6.00;99.90;;;4.53;100.00;102099.44;4949920;28;20141;-78
2023/04/17 03:39:59;;;;;;;58.25;26.92;;;6.10;99.90;;;4.52;100.00;102108.16;4967596;28;20455;-79
2023/04/17 03:42:34;;;;;;;48.50;26.50;;;6.00;99.90;;;4.51;100.00;102109.91;4944456;28;20033;-78
2023/04/17 03:45:00;;;;;;;50.22;27.40;;;6.00;99.90;;;4.46;100.00;102113.34;4989130;28;20046;-79
2023/04/17 03:47:26;;;;;;;53.63;27.83;;;6.00;99.90;;;4.45;100.00;102116.81;4962982;28;20060;-78
2023/04/17 03:49:51;;;;;;;59.70;29.02;;;6.00;99.90;;;4.41;100.00;102109.88;4979012;28;20064;-79
2023/04/17 03:52:25;;;;;;;67.43;29.65;;;5.90;99.90;;;4.40;100.00;102113.34;4988604;28;20459;-77
2023/04/17 03:54:51;;;;;;;55.08;30.40;;;5.90;99.90;;;4.44;100.00;102120.31;4963059;28;20116;-79
2023/04/17 03:57:17;;;;;;;60.53;31.00;;;5.90;99.90;;;4.33;100.00;102115.06;4972386;28;20144;-78
2023/04/17 03:59:42;;;;;;;68.03;31.45;;;5.80;99.90;;;4.28;100.00;102122.91;4960771;28;20088;-79
2023/04/17 04:02:17;;;;;;;59.80;30.45;;;5.80;99.90;;;4.25;100.00;102116.78;4989313;28;20597;-79
2023/04/17 04:04:43;;;;;;;64.40;32.55;;;5.70;99.90;;;4.16;100.00;102125.47;4959154;28;20097;-79
2023/04/17 04:07:09;;;;;;;62.33;31.40;;;5.60;99.90;;;4.07;100.00;102123.72;4953120;28;20037;-78
2023/04/17 04:09:34;;;;;;;59.65;31.13;;;5.50;99.90;;;3.97;100.00;102128.88;4939606;28;20442;-77
2023/04/17 04:12:08;;;;;;;65.75;33.92;;;5.40;99.90;;;3.93;100.00;102135.84;4997582;28;20053;-78
2023/04/17 04:14:34;;;;;;;80.53;35.67;;;5.40;99.90;;;3.86;100.00;102136.66;4938203;28;20694;-78
2023/04/17 04:17:00;;;;;;;60.45;31.25;;;5.30;99.90;;;3.81;100.00;102128.84;4978797;28;20053;-78
2023/04/17 04:19:26;;;;;;;57.58;30.25;;;5.20;99.90;;;3.80;100.00;102140.13;4969925;28;20037;-78
2023/04/17 04:21:52;;;;;;;73.25;33.78;;;5.20;99.90;;;3.81;100.00;102139.25;4972852;28;20498;-79
2023/04/17 04:24:22;;;;;;;77.22;34.90;;;5.20;99.90;;;3.80;100.00;102134.94;4967036;28;20289;-77
2023/04/17 04:26:48;;;;;;;66.75;34.13;;;5.20;99.90;;;3.82;100.00;102145.34;4955832;28;20135;-78
2023/04/17 04:29:15;;;;;;;67.10;34.13;;;5.20;99.90;;;3.87;100.00;102139.28;4983735;28;20768;-79
2023/04/17 04:31:41;;;;;;;65.68;31.80;;;5.20;99.90;;;3.89;100.00;102145.38;4942981;28;20037;-79
2023/04/17 04:34:08;;;;;;;71.90;32.38;;;5.20;99.90;;;3.95;100.00;102151.47;4982217;28;20049;-77
2023/04/17 04:36:49;;;;;;;70.18;32.83;;;5.20;99.90;;;4.00;100.00;102152.38;4955971;28;21465;-79
2023/04/17 04:39:19;;;;;;;62.33;28.45;;;5.30;99.90;;;4.04;100.00;102154.09;4958825;28;20103;-78
2023/04/17 04:41:51;;;;;;;55.33;28.58;;;5.30;99.90;;;4.08;100.00;102163.66;4953765;28;20045;-77
2023/04/17 04:44:20;;;;;;;69.07;31.40;;;5.40;99.90;;;4.23;100.00;102166.34;4990759;28;20467;-77
2023/04/17 04:46:46;;;;;;;61.85;33.22;;;5.60;99.90;;;4.74;99.75;102166.41;4926065;28;20037;-77
2023/04/17 04:49:12;;;;;;;71.38;34.22;;;6.00;99.90;;;5.53;97.84;102175.06;4980425;28;20033;-79
2023/04/17 04:51:38;;;;;;;54.22;28.27;;;6.50;99.90;;;6.66;94.87;102181.53;4963804;28;20050;-77
2023/04/17 04:54:05;;;;;;;49.25;27.55;;;7.30;99.90;;;8.04;89.44;102186.28;5009327;28;20041;-78
2023/04/17 04:56:31;;;;;;;54.88;26.20;;;8.10;99.90;;;9.18;83.86;102191.59;4969326;28;20127;-79
2023/04/17 04:59:06;;;;;;;55.15;29.00;;;8.90;99.90;;;10.12;78.36;102197.69;4934179;28;20118;-79
2023/04/17 05:01:31;;;;;;;56.60;27.77;;;9.60;99.90;;;10.77;73.53;102201.53;4982100;28;20087;-78
2023/04/17 05:03:57;;;;;;;58.40;28.42;;;10.00;99.90;;;11.29;70.30;102202.84;4926764;28;20033;-79
2023/04/17 05:06:23;;;;;;;57.42;26.25;;;10.60;99.90;;;12.07;68.02;102206.03;4975470;28;20121;-79
2023/04/17 05:08:54;;;;;;;52.53;26.58;;;11.20;99.90;;;13.07;66.17;102212.59;4968290;28;20117;-79
2023/04/17 05:11:21;;;;;;;48.85;25.08;;;11.70;99.90;;;13.80;63.38;102211.84;4959083;28;20038;-79
2023/04/17 05:13:47;;;;;;;46.50;25.60;;;12.10;99.90;;;14.02;61.26;102219.00;4983062;28;20033;-78
2023/04/17 05:16:13;;;;;;;45.92;24.00;;;12.40;99.90;;;14.05;60.50;102217.09;4988144;28;20029;-79
2023/04/17 05:18:38;;;;;;;54.97;26.65;;;12.60;99.90;;;14.49;59.59;102230.44;4953114;28;20045;-79
2023/04/17 05:21:13;;;;;;;48.85;26.25;;;13.10;99.90;;;15.62;58.31;102237.31;4949293;28;20036;-79
2023/04/17 05:23:39;;;;;;;49.38;25.05;;;13.70;99.90;;;16.52;55.13;102250.06;4983291;28;20030;-79
2023/04/17 05:26:06;;;;;;;42.60;22.67;;;13.90;99.90;;;16.25;54.93;102244.25;4975998;28;20038;-78
2023/04/17 05:28:31;;;;;;;46.00;23.85;;;14.00;99.90;;;16.09;54.58;102250.28;4959796;28;20029;-79
2023/04/17 05:31:02;;;;;;;48.13;23.40;;;14.20;99.90;;;16.84;53.63;102261.84;4924659;28;20115;-78
2023/04/17 05:33:28;;;;;;;42.33;22.40;;;14.40;99.90;;;17.13;52.75;102262.25;4965995;28;20029;-80
2023/04/17 05:35:54;;;;;;;38.60;21.98;;;14.70;99.90;;;17.48;51.71;102262.25;4936993;28;20104;-78
2023/04/17 05:38:20;;;;;;;41.60;23.23;;;14.80;99.90;;;17.03;52.76;102272.47;4941660;28;20109;-79
2023/04/17 05:40:45;;;;;;;39.15;21.63;;;15.10;99.90;;;17.51;52.31;102276.25;4953189;28;20552;-78
2023/04/17 05:43:11;;;;;;;38.72;22.30;;;15.30;99.90;;;17.44;52.05;102272.19;4991674;28;20046;-79
2023/04/17 05:45:43;;;;;;;40.83;22.27;;;14.70;99.90;;;14.88;54.73;102245.72;4985400;28;20033;-78
2023/04/17 05:48:08;;;;;;;38.47;22.52;;;14.30;99.90;;;13.06;59.00;102229.38;4979009;28;20055;-79
2023/04/17 05:50:36;;;;;;;48.20;23.20;;;13.30;99.90;;;11.32;63.67;102217.72;4927404;28;20040;-78
2023/04/17 05:53:02;;;;;;;48.05;23.02;;;12.30;99.90;;;10.29;66.51;102228.06;4975318;28;20053;-79
2023/04/17 05:55:27;;;;;;;48.63;22.58;;;11.50;99.90;;;9.36;70.39;102227.19;4976450;28;20586;-79
2023/04/17 05:57:58;;;;;;;47.55;24.40;;;10.60;99.90;;;8.59;73.31;102230.19;4965279;28;20046;-79
2023/04/17 06:00:24;;;;;;;54.60;22.48;;;10.20;99.90;;;8.51;75.14;102232.03;4985499;28;20034;-78
2023/04/17 06:02:51;;;;;;;51.65;22.35;;;9.70;99.90;;;7.90;76.37;102226.66;4972361;28;20556;-79
2023/04/17 06:05:17;;;;;;;52.03;23.95;;;9.50;99.90;;;8.12;77.72;102229.00;4959558;28;20065;-79
2023/04/17 06:07:43;;;;;;;53.22;22.42;;;9.30;99.90;;;7.91;78.44;102220.53;4951911;28;20041;-80
2023/04/17 06:10:15;;;;;;;42.75;21.27;;;9.10;99.90;;;7.53;79.44;102220.94;4956332;28;20050;-79
2023/04/17 06:12:41;;;;;;;41.70;22.02;;;9.00;99.90;;;7.52;80.35;102217.47;4922891;28;20037;-80
2023/04/17 06:15:08;;;;;;;47.17;24.15;;;8.90;99.90;;;7.62;81.14;102231.31;4934193;28;20034;-78
2023/04/17 06:17:42;;;;;;;42.20;22.33;;;8.90;99.90;;;7.77;81.09;102227.69;4968445;28;20038;-79
2023/04/17 06:20:10;;;;;;;48.00;22.23;;;9.00;99.90;;;7.97;80.63;102235.34;4967424;28;20034;-78
2023/04/17 06:22:37;;;;;;;40.15;19.35;;;8.90;99.90;;;7.82;81.01;102228.50;5006904;28;20029;-80
2023/04/17 06:25:03;;;;;;;45.85;19.67;;;9.00;99.90;;;8.44;79.98;102241.75;4947394;28;20034;-80
2023/04/17 06:27:34;;;;;;;43.45;21.80;;;9.30;99.90;;;9.11;78.62;102253.03;4940643;28;20564;-80
2023/04/17 06:29:59;;;;;;;35.20;16.25;;;9.60;99.90;;;8.82;77.11;102251.72;4932232;28;20039;-79
2023/04/17 06:32:25;;;;;;;36.25;20.02;;;9.60;99.90;;;8.91;77.27;102253.34;4952668;28;20035;-78
2023/04/17 06:34:51;;;;;;;30.27;16.83;;;9.90;99.90;;;9.10;75.52;102255.69;4989483;28;20069;-80
2023/04/17 06:37:17;;;;;;;38.22;18.00;;;9.90;99.90;;;9.59;73.90;102260.09;4973581;28;20121;-79
2023/04/17 06:39:42;;;;;;;33.13;18.40;;;10.00;99.90;;;9.68;72.51;102259.09;4964182;28;20030;-80
2023/04/17 06:42:16;;;;;;;36.95;20.98;;;10.40;99.90;;;11.04;70.68;102281.72;4977675;28;20121;-79
2023/04/17 06:44:42;;;;;;;35.92;20.98;;;11.40;99.90;;;13.05;65.42;102286.69;4949245;28;20061;-79
2023/04/17 06:47:08;;;;;;;38.97;21.08;;;11.70;99.90;;;12.56;63.76;102282.94;4944011;23;20362;-79
2023/04/17 06:49:34;;;;;;;40.22;22.85;;;11.50;99.90;;;10.99;66.64;102266.00;4978490;28;20037;-79
2023/04/17 06:52:00;;;;;;;34.70;16.50;;;11.40;99.90;;;9.91;68.37;102272.66;4975347;28;20049;-80
2023/04/17 06:54:34;;;;;;;33.83;19.83;;;11.30;99.90;;;10.82;67.35;102287.47;4960726;28;20038;-79
2023/04/17 06:57:01;;;;;;;44.10;25.40;;;11.50;99.90;;;12.38;65.86;102300.19;4991245;28;20108;-79
2023/04/17 06:59:27;;;;;;;43.53;21.80;;;12.00;99.90;;;11.04;64.85;102281.72;4949199;28;20076;-78
2023/04/17 07:02:00;;;;;;;36.47;22.55;;;11.30;99.90;;;9.19;68.60;102281.81;4987512;28;20029;-78
2023/04/17 07:04:26;;;;;;;39.38;22.92;;;10.30;99.90;;;7.98;73.20;102282.53;4973870;28;20037;-78
2023/04/17 07:06:52;;;;;;;33.22;17.83;;;9.60;99.90;;;7.16;75.99;102290.25;4984739;28;20121;-79
2023/04/17 07:09:18;;;;;;;25.55;13.00;;;9.00;99.90;;;6.55;78.07;102290.66;4977400;28;20124;-80
2023/04/17 07:11:44;;;;;;;29.00;16.67;;;8.10;99.90;;;5.80;80.92;102291.72;4966613;28;20127;-78
2023/04/17 07:14:15;;;;;;;41.50;23.17;;;7.80;99.90;;;5.80;83.33;102296.94;4941021;28;20047;-79
2023/04/17 07:16:44;;;;;;;48.05;25.52;;;7.50;99.90;;;5.69;84.67;102296.97;4951226;28;20043;-79
2023/04/17 07:19:10;;;;;;;40.10;20.90;;;7.40;99.90;;;5.48;85.58;102297.84;4982628;28;20072;-79
2023/04/17 07:21:36;;;;;;;49.80;26.58;;;7.30;99.90;;;5.75;86.51;102312.66;4967054;28;20041;-78
2023/04/17 07:24:05;;;;;;;30.77;15.77;;;7.20;99.90;;;5.32;87.76;102312.66;5033267;28;20057;-80
2023/04/17 07:26:31;;;;;;;40.05;21.95;;;7.10;99.90;;;5.39;89.56;102313.53;5015817;28;20087;-77
2023/04/17 07:28:56;;;;;;;48.08;25.20;;;7.10;99.90;;;5.49;89.60;102315.28;4968667;28;20039;-77
2023/04/17 07:31:22;;;;;;;48.40;25.67;;;7.10;99.90;;;5.65;89.88;102317.88;4991530;28;20030;-79
2023/04/17 07:33:48;;;;;;;49.45;25.40;;;7.20;99.90;;;5.66;90.28;102327.44;4963651;28;20038;-80
2023/04/17 07:36:14;;;;;;;38.10;22.40;;;7.10;99.90;;;5.67;90.81;102331.81;4949000;28;20025;-78
2023/04/17 07:38:41;;;;;;;41.85;21.95;;;7.20;99.90;;;5.66;91.01;102327.44;5029100;28;20553;-78
2023/04/17 07:41:14;;;;;;;43.65;24.63;;;7.20;99.90;;;5.70;90.89;102329.19;5003514;28;20043;-77
2023/04/17 07:43:40;;;;;;;44.35;23.98;;;;;;;5.79;91.36;102333.53;4974868;28;20025;-79
2023/04/17 07:46:06;;;;;;;46.92;24.13;;;7.20;99.90;;;5.79;90.98;102334.44;5013024;28;20052;-78
2023/04/17 07:48:32;;;;;;;42.65;23.23;;;7.20;99.90;;;5.85;91.12;102323.97;4965394;28;20444;-78
2023/04/17 07:51:02;;;;;;;47.45;22.17;;;7.30;99.90;;;5.88;90.90;102333.56;4978098;28;20118;-77
2023/04/17 07:53:29;;;;;;;44.60;25.00;;;7.30;99.90;;;5.89;91.14;102340.50;4950666;28;20026;-78
2023/04/17 07:55:55;;;;;;;36.95;20.63;;;7.30;99.90;;;5.92;91.06;102351.84;4964552;28;20071;-78
2023/04/17 07:58:22;;;;;;;39.38;21.67;;;7.30;99.90;;;5.72;91.82;102332.69;4997670;28;20112;-79
2023/04/17 08:00:56;;;;;;;41.33;24.00;;;7.40;99.90;;;6.07;92.13;102343.13;4943153;28;20017;-78
2023/04/17 08:03:22;;;;;;;40.28;21.58;;;7.40;99.90;;;6.01;91.34;102344.91;4956015;28;20073;-77
2023/04/17 08:05:52;;;;;;;39.58;18.23;;;7.50;99.90;;;5.95;90.90;102362.31;4970093;28;20030;-77
2023/04/17 08:08:25;;;;;;;31.42;14.60;;;7.40;99.90;;;5.83;91.34;102345.75;4970563;28;20045;-77
2023/04/17 08:10:51;;;;;;;38.45;19.75;;;7.40;99.90;;;5.83;91.87;102349.25;4963691;28;20052;-77
2023/04/17 08:13:17;;;;;;;36.10;22.15;;;7.40;99.90;;;5.97;91.83;102345.78;4943201;28;20034;-77
2023/04/17 08:15:44;;;;;;;39.10;23.45;;;7.40;99.90;;;6.00;92.29;102349.22;4961729;28;20056;-79
2023/04/17 08:18:15;;;;;;;29.33;17.08;;;7.50;99.90;;;6.08;91.70;102354.47;4995038;28;20033;-77
2023/04/17 08:20:41;;;;;;;34.60;20.27;;;;;;;6.24;90.73;102358.81;4967450;28;20064;-77
2023/04/17 08:23:07;;;;;;;35.88;21.67;;;7.60;99.90;;;6.29;90.88;102367.50;4971928;28;20075;-78
2023/04/17 08:25:33;;;;;;;33.22;21.52;;;7.60;99.90;;;6.31;90.57;102370.13;4987597;28;20029;-77
2023/04/17 08:27:59;;;;;;;40.80;20.98;;;7.60;99.90;;;6.25;90.06;102365.75;4987195;28;20049;-78
2023/04/17 08:30:27;;;;;;;36.30;17.70;;;7.00;99.90;;;6.23;89.76;102364.03;4948109;28;20046;-77
2023/04/17 08:32:56;;;;;;;32.63;19.50;;;7.60;99.90;;;6.19;88.70;102371.00;4974735;28;20045;-78
2023/04/17 08:35:22;;;;;;;32.38;19.05;;;7.60;99.90;;;6.19;88.45;102373.59;4977884;28;20050;-78
2023/04/17 08:37:48;;;;;;;34.70;19.95;;;7.80;99.90;;;6.43;88.52;102380.53;5017482;28;20029;-77
2023/04/17 08:40:15;;;;;;;33.25;19.27;;;7.80;99.90;;;6.57;89.06;102380.50;4979045;28;20041;-77
2023/04/17 08:42:50;;;;;;;29.20;18.20;;;7.90;99.90;;;6.51;88.38;102381.38;5014984;28;20041;-79
2023/04/17 08:45:17;;;;;;;32.70;17.52;;;7.90;99.90;;;6.62;88.45;102383.97;4972749;28;20468;-78
2023/04/17 08:47:43;;;;;;;27.13;14.50;;;7.90;99.90;;;6.42;87.86;102384.03;4995403;28;20091;-79
2023/04/17 08:50:18;;;;;;;34.97;18.83;;;7.90;99.90;;;6.50;88.55;102384.00;4976182;28;20059;-78
2023/04/17 08:52:51;;;;;;;34.00;19.77;;;7.90;99.90;;;6.50;88.90;102387.50;4966613;28;20037;-79
2023/04/17 08:55:24;;;;;;;32.88;17.73;;;8.00;99.90;;;6.68;88.53;102388.31;4954113;28;20042;-77
2023/04/17 08:58:02;;;;;;;30.38;17.42;;;8.10;99.90;;;6.81;87.85;102389.13;4970700;28;20027;-79
2023/04/17 09:00:31;;;;;;;25.23;14.82;;;8.00;99.90;;;6.66;87.30;102393.53;4982611;28;20054;-78
2023/04/17 09:03:03;;;;;;;27.27;17.05;;;8.20;99.90;;;6.98;87.85;102397.78;4984540;28;20120;-78
2023/04/17 09:05:37;;;;;;;31.55;15.55;;;8.30;99.90;;;7.11;86.77;102402.06;4983478;28;20033;-77
2023/04/17 09:08:28;;;;;;;26.83;16.15;;;8.50;99.90;;;7.54;85.80;102406.19;5032737;28;20021;-78
2023/04/17 09:10:55;;;;;;;27.73;15.50;;;8.80;99.90;;;7.83;83.26;102395.44;5004552;28;20041;-78
2023/04/17 09:13:26;;;;;;;23.27;14.27;;;9.00;99.90;;;8.05;82.33;102398.75;5004858;28;20041;-79
2023/04/17 09:16:20;;;;;;;21.40;14.02;;;9.20;99.90;;;8.41;81.19;102405.41;4986258;28;20424;-79
2023/04/17 09:18:48;;;;;;;16.92;11.18;;;9.50;99.90;;;8.84;79.69;102411.94;5037767;28;20175;-78
2023/04/17 09:21:26;;;;;;;14.38;9.75;;;9.70;99.90;;;8.92;77.14;102404.84;4987892;28;20065;-78
2023/04/17 09:23:55;;;;;;;16.67;10.65;;;9.90;99.90;;;8.91;76.76;102410.97;5019211;28;20087;-78
2023/04/17 09:26:32;;;;;;;16.02;11.23;;;10.10;99.90;;;9.27;76.68;102410.50;4965746;28;20042;-79
2023/04/17 09:29:14;;;;;;;13.68;8.82;;;10.30;99.90;;;9.27;76.20;102421.03;4979982;28;20511;-77
2023/04/17 09:31:45;;;;;;;14.48;10.45;;;10.50;99.90;;;9.68;75.43;102417.75;4974035;28;20038;-78
2023/04/17 09:34:15;;;;;;;9.52;5.50;;;10.50;99.90;;;9.23;73.80;102415.78;4989907;28;21099;-79
2023/04/17 09:36:43;;;;;;;10.70;6.10;;;10.40;99.90;;;9.28;73.05;102420.13;4971441;28;20031;-79
2023/04/17 09:39:24;;;;;;;8.60;5.65;;;10.40;99.90;;;9.42;73.90;102415.53;4978667;28;20029;-77
2023/04/17 09:42:05;;;;;;;5.93;4.30;;;10.60;99.90;;;9.60;72.05;102417.88;5005607;28;20048;-79
2023/04/17 09:44:31;;;;;;;7.43;4.60;;;10.80;99.90;;;9.90;70.85;102417.41;5015842;28;20033;-78
2023/04/17 09:47:06;;;;;;;5.18;4.00;;;10.70;99.90;;;9.61;70.03;102422.25;5006312;28;20037;-77
2023/04/17 09:49:47;;;;;;;7.17;4.30;;;10.70;99.90;;;9.57;70.25;102423.19;4975106;28;20800;-78
2023/04/17 09:52:22;;;;;;;5.95;4.22;;;10.80;99.90;;;9.37;70.12;102422.59;5017546;28;20120;-78
2023/04/17 09:55:05;;;;;;;6.68;3.83;;;10.50;99.90;;;9.01;70.68;102423.09;5015889;28;20025;-78
2023/04/17 09:57:32;;;;;;;6.32;3.38;;;10.30;99.90;;;8.76;71.11;102426.91;4990985;28;20043;-79
2023/04/17 10:00:03;;;;;;;7.07;3.70;;;10.20;99.90;;;8.78;71.98;102420.75;5007205;28;20045;-77
2023/04/17 10:02:34;;;;;;;7.95;5.65;;;10.10;99.90;;;8.84;73.31;102425.06;4976507;28;20532;-78
2023/04/17 10:05:09;;;;;;;8.90;6.18;;;10.20;99.90;;;9.35;73.94;102434.91;5019643;28;20038;-78
2023/04/17 10:07:38;;;;;;;7.13;5.78;;;10.50;99.90;;;9.79;73.51;102443.91;4979881;28;20099;-78
2023/04/17 10:10:09;;;;;;;9.27;5.82;;;10.70;99.90;;;9.66;72.07;102432.69;4987576;28;20039;-78
2023/04/17 10:12:39;;;;;;;6.13;4.85;;;10.70;99.90;;;9.39;72.19;102440.09;4986501;28;20052;-78